Time;durP1;ratioP1;P1;durP2;ratioP2;P2;SDS_P1;SDS_P2;PMS_P1;PMS_P2;Temp;Humidity;BMP_temperature;BMP_pressure;BME280_temperature;BME280_humidity;BME280_pressure;Samples;Min_cycle;Max_cycle;Signal;HPM_P1;HPM_P2
2022/03/14 00:01:27;;;;;;;3.13;1.60;;;;;;;;;;5013786;28;20038;-57
2022/03/14 00:03:55;;;;;;;5.05;1.70;;;;;;;;;;5002477;28;20053;-60
2022/03/14 00:06:22;;;;;;;7.37;1.63;;;;;;;;;;5013464;28;20059;-58
2022/03/14 00:08:50;;;;;;;4.00;1.67;;;;;;;;;;5030118;28;20061;-59
2022/03/14 00:11:17;;;;;;;3.87;1.73;;;;;;;;;;5002823;28;20045;-57
2022/03/14 00:13:46;;;;;;;2.78;1.60;;;;;;;;;;5032101;28;20053;-58
2022/03/14 00:16:23;;;;;;;5.53;1.50;;;;;;;;;;5039649;28;20059;-57
2022/03/14 00:18:50;;;;;;;2.88;1.48;;;;;;;;;;5028214;28;20053;-58
2022/03/14 00:21:20;;;;;;;2.80;1.50;;;;;;;;;;5023412;28;20125;-58
2022/03/14 00:23:48;;;;;;;5.40;1.50;;;;;;;;;;5012991;28;20069;-60
2022/03/14 00:26:14;;;;;;;3.83;1.73;;;;;;;;;;5020010;28;20063;-56
2022/03/14 00:28:42;;;;;;;3.13;1.38;;;;;;;;;;5031685;28;20053;-56
2022/03/14 00:31:09;;;;;;;4.70;1.27;;;;;;;;;;5034453;28;20053;-56
2022/03/14 00:33:40;;;;;;;2.85;1.38;;;;;;;;;;5010866;28;20061;-59
2022/03/14 00:36:08;;;;;;;2.50;1.30;;;;;;;;;;5023559;28;20077;-51
2022/03/14 00:38:36;;;;;;;2.40;1.17;;;;;;;;;;5011927;28;20156;-54
2022/03/14 00:41:03;;;;;;;2.10;1.10;;;;;;;;;;5024752;28;20119;-57
2022/03/14 00:43:32;;;;;;;2.17;1.20;;;;;;;;;;5049106;28;20056;-56
2022/03/14 00:45:59;;;;;;;2.40;1.40;;;;;;;;;;5027746;28;20131;-57
2022/03/14 00:48:26;;;;;;;5.43;1.38;;;;;;;;;;5010889;28;20050;-53
2022/03/14 00:50:54;;;;;;;5.85;1.30;;;;;;;;;;5012671;28;20050;-52
2022/03/14 00:53:22;;;;;;;2.83;1.17;;;;;;;;;;5041058;28;20061;-62
2022/03/14 00:55:49;;;;;;;3.47;1.52;;;;;;;;;;5048597;28;20057;-61
2022/03/14 00:58:15;;;;;;;3.13;1.35;;;;;;;;;;5041883;28;20053;-62
2022/03/14 01:00:43;;;;;;;4.05;1.40;;;;;;;;;;5032873;28;20053;-62
2022/03/14 01:03:09;;;;;;;3.70;1.40;;;;;;;;;;5027524;28;20076;-61
2022/03/14 01:05:36;;;;;;;5.13;1.23;;;;;;;;;;5027096;28;20066;-60
2022/03/14 01:08:06;;;;;;;2.70;1.30;;;;;;;;;;5020616;28;20112;-59
2022/03/14 01:10:33;;;;;;;3.08;1.05;;;;;;;;;;5025487;28;20137;-60
2022/03/14 01:13:02;;;;;;;3.75;1.40;;;;;;;;;;5002971;28;20073;-60
2022/03/14 01:15:29;;;;;;;2.28;1.15;;;;;;;;;;5025121;28;20073;-61
2022/03/14 01:17:56;;;;;;;1.88;1.10;;;;;;;;;;5012795;28;20137;-58
2022/03/14 01:20:22;;;;;;;1.67;0.95;;;;;;;;;;5005215;28;20054;-53
2022/03/14 01:22:49;;;;;;;2.78;1.30;;;;;;;;;;5003089;28;20050;-55
2022/03/14 01:25:19;;;;;;;1.83;1.10;;;;;;;;;;5024882;28;20038;-54
2022/03/14 01:27:46;;;;;;;2.65;1.20;;;;;;;;;;5017851;28;20060;-57
2022/03/14 01:30:14;;;;;;;1.73;1.10;;;;;;;;;;5021970;28;20058;-57
2022/03/14 01:32:42;;;;;;;1.75;1.08;;;;;;;;;;4988833;28;20149;-61
2022/03/14 01:35:09;;;;;;;2.05;1.00;;;;;;;;;;4985731;28;20140;-60
2022/03/14 01:37:35;;;;;;;2.45;1.08;;;;;;;;;;4991117;28;20074;-55
2022/03/14 01:40:02;;;;;;;4.85;1.33;;;;;;;;;;4988505;28;20086;-56
2022/03/14 01:42:30;;;;;;;3.63;1.05;;;;;;;;;;4986693;28;20070;-53
2022/03/14 01:44:56;;;;;;;1.70;1.00;;;;;;;;;;4996979;28;20173;-56
2022/03/14 01:47:23;;;;;;;3.33;1.00;;;;;;;;;;4992691;28;20053;-56
2022/03/14 01:49:49;;;;;;;2.30;1.20;;;;;;;;;;4974403;28;20101;-57
2022/03/14 01:52:16;;;;;;;1.75;0.90;;;;;;;;;;4971880;28;20140;-60
2022/03/14 01:54:43;;;;;;;2.75;1.13;;;;;;;;;;4974812;28;20045;-59
2022/03/14 01:57:10;;;;;;;2.03;1.13;;;;;;;;;;4991297;28;20192;-61
2022/03/14 01:59:38;;;;;;;1.15;0.88;;;;;;;;;;4978275;28;20133;-59
2022/03/14 02:02:05;;;;;;;2.50;1.10;;;;;;;;;;4988076;28;20046;-57
2022/03/14 02:04:32;;;;;;;1.83;0.90;;;;;;;;;;4966768;28;20046;-55
2022/03/14 02:06:59;;;;;;;1.70;0.95;;;;;;;;;;4972045;28;20098;-61
2022/03/14 02:09:25;;;;;;;1.88;1.02;;;;;;;;;;4966634;28;20070;-53
2022/03/14 02:11:53;;;;;;;1.65;1.10;;;;;;;;;;4971680;28;20073;-56
2022/03/14 02:14:20;;;;;;;1.70;0.90;;;;;;;;;;4972759;28;20054;-58
2022/03/14 02:16:57;;;;;;;8.77;1.10;;;;;;;;;;4977025;28;20049;-56
2022/03/14 02:19:34;;;;;;;2.40;1.10;;;;;;;;;;4989589;28;20098;-53
2022/03/14 02:22:02;;;;;;;1.73;1.10;;;;;;;;;;4991511;28;20156;-54
2022/03/14 02:24:29;;;;;;;;;;;;;;;;;;4992471;28;20072;-55
2022/03/14 02:26:56;;;;;;;2.83;1.30;;;;;;;;;;5009173;28;19928;-49
2022/03/14 02:29:23;;;;;;;3.80;1.42;;;;;;;;;;5009386;28;20045;-51
2022/03/14 02:31:51;;;;;;;2.70;1.33;;;;;;;;;;4992344;28;20046;-48
2022/03/14 02:34:19;;;;;;;3.23;1.30;;;;;;;;;;4992454;28;20061;-59
2022/03/14 02:36:46;;;;;;;2.80;1.20;;;;;;;;;;4992190;28;20069;-58
2022/03/14 02:39:15;;;;;;;5.10;1.10;;;;;;;;;;5008518;28;20145;-59
2022/03/14 02:41:42;;;;;;;2.58;1.13;;;;;;;;;;4991764;28;20050;-60
2022/03/14 02:44:09;;;;;;;1.10;0.82;;;;;;;;;;4991311;28;20156;-58
2022/03/14 02:46:37;;;;;;;2.53;1.17;;;;;;;;;;4990371;28;20062;-62
2022/03/14 02:49:04;;;;;;;2.17;1.20;;;;;;;;;;4991335;28;20140;-59
2022/03/14 02:51:31;;;;;;;2.08;1.30;;;;;;;;;;4990749;28;20062;-59
2022/03/14 02:54:01;;;;;;;2.58;1.17;;;;;;;;;;4991214;28;20053;-59
2022/03/14 02:56:29;;;;;;;2.00;1.13;;;;;;;;;;5010190;28;20058;-61
2022/03/14 02:58:58;;;;;;;2.10;1.07;;;;;;;;;;4995428;28;20057;-61
2022/03/14 03:01:24;;;;;;;4.80;1.52;;;;;;;;;;4992554;28;20310;-52
2022/03/14 03:03:51;;;;;;;2.28;1.00;;;;;;;;;;4975544;28;20046;-54
2022/03/14 03:06:22;;;;;;;3.17;1.38;;;;;;;;;;4975382;28;20062;-56
2022/03/14 03:08:51;;;;;;;3.15;1.25;;;;;;;;;;4991908;28;20129;-51
2022/03/14 03:11:18;;;;;;;;;;;;;;;;;;4976549;28;20128;-52
2022/03/14 03:13:47;;;;;;;3.60;1.50;;;;;;;;;;4992519;28;19928;-56
2022/03/14 03:16:16;;;;;;;4.22;1.70;;;;;;;;;;4976740;28;20065;-57
2022/03/14 03:18:45;;;;;;;4.10;1.90;;;;;;;;;;4976228;28;20046;-60
2022/03/14 03:21:12;;;;;;;3.28;1.40;;;;;;;;;;4992544;28;20058;-57
2022/03/14 03:23:41;;;;;;;1.88;0.90;;;;;;;;;;4993338;28;20112;-56
2022/03/14 03:26:07;;;;;;;2.08;1.13;;;;;;;;;;4992572;28;20054;-56
2022/03/14 03:28:37;;;;;;;4.25;1.60;;;;;;;;;;4976891;28;20064;-59
2022/03/14 03:31:07;;;;;;;3.15;1.73;;;;;;;;;;4993350;28;20074;-52
2022/03/14 03:33:34;;;;;;;3.15;1.60;;;;;;;;;;4976018;28;20057;-61
2022/03/14 03:36:00;;;;;;;2.95;1.40;;;;;;;;;;4975843;28;20122;-59
2022/03/14 03:38:28;;;;;;;2.22;1.13;;;;;;;;;;4992706;28;20051;-57
2022/03/14 03:40:55;;;;;;;3.70;1.58;;;;;;;;;;4991856;28;20054;-58
2022/03/14 03:43:22;;;;;;;2.58;1.40;;;;;;;;;;4975764;28;20054;-58
2022/03/14 03:45:49;;;;;;;5.45;1.75;;;;;;;;;;4975507;28;20053;-52
2022/03/14 03:48:20;;;;;;;4.03;1.40;;;;;;;;;;4992285;28;20058;-52
2022/03/14 03:50:48;;;;;;;2.80;1.40;;;;;;;;;;4976717;28;20058;-51
2022/03/14 03:53:16;;;;;;;4.10;1.87;;;;;;;;;;4976736;28;20054;-52
2022/03/14 03:55:42;;;;;;;2.40;1.30;;;;;;;;;;4976446;28;20343;-55
2022/03/14 03:58:11;;;;;;;3.63;1.25;;;;;;;;;;4991853;28;20054;-52
2022/03/14 04:00:37;;;;;;;2.05;1.27;;;;;;;;;;4975307;28;20062;-60
2022/03/14 04:03:04;;;;;;;4.30;1.83;;;;;;;;;;4975339;28;20057;-58
2022/03/14 04:05:32;;;;;;;2.42;1.40;;;;;;;;;;4990675;28;20053;-56
2022/03/14 04:08:02;;;;;;;4.90;2.10;;;;;;;;;;4974907;28;20061;-58
2022/03/14 04:10:30;;;;;;;4.28;2.00;;;;;;;;;;4975243;28;20297;-55
2022/03/14 04:13:03;;;;;;;2.50;1.33;;;;;;;;;;4974946;28;20050;-58
2022/03/14 04:15:43;;;;;;;3.85;1.70;;;;;;;;;;4973236;28;20062;-57
2022/03/14 04:18:10;;;;;;;4.82;1.83;;;;;;;;;;4974626;28;20050;-61
2022/03/14 04:20:41;;;;;;;3.03;1.67;;;;;;;;;;4990961;28;20065;-59
2022/03/14 04:23:09;;;;;;;3.50;1.88;;;;;;;;;;4991065;28;20054;-62
2022/03/14 04:25:36;;;;;;;2.95;1.52;;;;;;;;;;4991435;28;20081;-58
2022/03/14 04:28:02;;;;;;;2.83;1.50;;;;;;;;;;4991056;28;20054;-61
2022/03/14 04:30:29;;;;;;;3.15;1.80;;;;;;;;;;4991094;28;20062;-62
2022/03/14 04:32:57;;;;;;;3.60;1.65;;;;;;;;;;4990571;28;20050;-60
2022/03/14 04:35:23;;;;;;;3.03;1.40;;;;;;;;;;4975015;28;20065;-57
2022/03/14 04:37:50;;;;;;;3.22;1.45;;;;;;;;;;4990892;28;20054;-57
2022/03/14 04:40:18;;;;;;;3.63;1.45;;;;;;;;;;4990642;28;20062;-55
2022/03/14 04:42:45;;;;;;;3.70;1.83;;;;;;;;;;4974639;28;20057;-50
2022/03/14 04:45:12;;;;;;;3.33;1.40;;;;;;;;;;4974791;28;20054;-52
2022/03/14 04:47:39;;;;;;;5.40;1.80;;;;;;;;;;4989786;28;20050;-59
2022/03/14 04:50:07;;;;;;;2.55;1.38;;;;;;;;;;4991854;28;20063;-61
2022/03/14 04:52:35;;;;;;;7.22;2.83;;;;;;;;;;4991125;28;20081;-60
2022/03/14 04:55:02;;;;;;;5.38;1.95;;;;;;;;;;4989985;28;20050;-53
2022/03/14 04:57:32;;;;;;;4.20;1.75;;;;;;;;;;4990076;28;20065;-56
2022/03/14 04:59:59;;;;;;;4.85;2.35;;;;;;;;;;4973788;28;20082;-54
2022/03/14 05:02:26;;;;;;;4.47;2.40;;;;;;;;;;4990598;28;20058;-56
2022/03/14 05:04:52;;;;;;;4.80;2.42;;;;;;;;;;4974656;28;20053;-55
2022/03/14 05:07:19;;;;;;;3.75;2.05;;;;;;;;;;4990267;28;20060;-57
2022/03/14 05:09:46;;;;;;;4.43;1.92;;;;;;;;;;4975024;28;20154;-55
2022/03/14 05:12:13;;;;;;;4.15;2.20;;;;;;;;;;4974091;28;20046;-53
2022/03/14 05:14:41;;;;;;;4.63;2.13;;;;;;;;;;4989999;28;20050;-57
2022/03/14 05:17:09;;;;;;;6.13;2.75;;;;;;;;;;4973637;28;20058;-58
2022/03/14 05:19:36;;;;;;;3.80;1.90;;;;;;;;;;4987880;28;20053;-55
2022/03/14 05:22:03;;;;;;;6.55;1.83;;;;;;;;;;4973200;28;20055;-55
2022/03/14 05:24:30;;;;;;;5.03;1.90;;;;;;;;;;4973583;28;20068;-53
2022/03/14 05:26:57;;;;;;;3.28;1.65;;;;;;;;;;4989156;28;20065;-51
2022/03/14 05:29:24;;;;;;;7.18;2.88;;;;;;;;;;4972861;28;20090;-57
2022/03/14 05:31:53;;;;;;;5.05;2.30;;;;;;;;;;4972836;28;20046;-52
2022/03/14 05:34:20;;;;;;;6.00;2.90;;;;;;;;;;4973416;28;20055;-55
2022/03/14 05:36:47;;;;;;;3.50;1.83;;;;;;;;;;4989335;28;20066;-50
2022/03/14 05:39:14;;;;;;;4.88;2.30;;;;;;;;;;4989367;28;20050;-52
2022/03/14 05:41:40;;;;;;;4.07;2.03;;;;;;;;;;4972837;28;20101;-51
2022/03/14 05:44:07;;;;;;;5.90;2.83;;;;;;;;;;4972119;28;20058;-53
2022/03/14 05:46:34;;;;;;;5.13;2.17;;;;;;;;;;4988962;28;20073;-50
2022/03/14 05:49:02;;;;;;;4.13;2.25;;;;;;;;;;4972857;28;20058;-55
2022/03/14 05:51:29;;;;;;;4.95;2.60;;;;;;;;;;4966866;28;20058;-54
2022/03/14 05:53:57;;;;;;;6.80;3.10;;;;;;;;;;4985490;28;20050;-55
2022/03/14 05:56:24;;;;;;;;;;;;;;;;;;4990043;28;20053;-57
2022/03/14 05:58:51;;;;;;;4.03;2.38;;;;;;;;;;4989473;28;19932;-60
2022/03/14 06:01:18;;;;;;;5.25;2.63;;;;;;;;;;4973864;28;20046;-61
2022/03/14 06:03:44;;;;;;;10.77;4.90;;;;;;;;;;4970078;28;20069;-63
2022/03/14 06:06:13;;;;;;;8.55;3.35;;;;;;;;;;4971598;28;20054;-57
2022/03/14 06:08:39;;;;;;;5.85;3.05;;;;;;;;;;4990006;28;20070;-56
2022/03/14 06:11:08;;;;;;;7.75;3.70;;;;;;;;;;4973238;28;20058;-51
2022/03/14 06:13:35;;;;;;;7.70;3.30;;;;;;;;;;4989103;28;20128;-57
2022/03/14 06:16:02;;;;;;;9.02;5.10;;;;;;;;;;4988478;28;20120;-58
2022/03/14 06:18:31;;;;;;;5.95;3.00;;;;;;;;;;4988523;28;20065;-55
2022/03/14 06:20:57;;;;;;;6.05;3.15;;;;;;;;;;4972279;28;20081;-57
2022/03/14 06:23:25;;;;;;;7.40;3.63;;;;;;;;;;4980634;28;20192;-61
2022/03/14 06:25:54;;;;;;;8.85;4.20;;;;;;;;;;4973143;28;20124;-61
2022/03/14 06:28:21;;;;;;;16.45;6.20;;;;;;;;;;4973769;28;20054;-58
2022/03/14 06:30:47;;;;;;;6.80;3.10;;;;;;;;;;4986918;28;20058;-57
2022/03/14 06:33:14;;;;;;;7.13;3.70;;;;;;;;;;4972604;28;20050;-53
2022/03/14 06:35:42;;;;;;;5.40;2.42;;;;;;;;;;4988895;28;20054;-61
2022/03/14 06:38:11;;;;;;;11.40;4.73;;;;;;;;;;4971906;28;20061;-53
2022/03/14 06:40:39;;;;;;;7.40;3.28;;;;;;;;;;4971666;28;20319;-54
2022/03/14 06:43:06;;;;;;;7.60;4.03;;;;;;;;;;4971879;28;20046;-57
2022/03/14 06:45:33;;;;;;;6.90;3.63;;;;;;;;;;4987931;28;20311;-54
2022/03/14 06:48:00;;;;;;;8.80;4.63;;;;;;;;;;4971270;28;20138;-58
2022/03/14 06:50:27;;;;;;;13.65;5.78;;;;;;;;;;4971211;28;20053;-55
2022/03/14 06:52:56;;;;;;;8.02;3.75;;;;;;;;;;4989206;28;20132;-58
2022/03/14 06:55:23;;;;;;;10.27;4.75;;;;;;;;;;4989348;28;20211;-52
2022/03/14 06:57:51;;;;;;;9.00;4.25;;;;;;;;;;4987617;28;20062;-58
2022/03/14 07:00:18;;;;;;;10.13;4.45;;;;;;;;;;4971530;28;20073;-57
2022/03/14 07:02:45;;;;;;;7.85;3.60;;;;;;;;;;4988902;28;20061;-59
2022/03/14 07:05:13;;;;;;;8.90;3.80;;;;;;;;;;4988157;28;20134;-61
2022/03/14 07:07:39;;;;;;;9.18;4.28;;;;;;;;;;4971552;28;20122;-62
2022/03/14 07:10:07;;;;;;;7.90;3.97;;;;;;;;;;4987237;28;20061;-62
2022/03/14 07:12:44;;;;;;;9.82;5.00;;;;;;;;;;4971278;28;20046;-61
2022/03/14 07:15:13;;;;;;;9.00;4.40;;;;;;;;;;4971434;28;20055;-58
2022/03/14 07:17:41;;;;;;;8.40;3.95;;;;;;;;;;4971670;28;20062;-62
2022/03/14 07:20:11;;;;;;;8.88;3.35;;;;;;;;;;4987898;28;20058;-61
2022/03/14 07:22:48;;;;;;;8.35;3.55;;;;;;;;;;4987906;28;20129;-59
2022/03/14 07:25:14;;;;;;;7.40;4.15;;;;;;;;;;4971454;28;20149;-61
2022/03/14 07:27:45;;;;;;;15.45;5.88;;;;;;;;;;4988316;28;20061;-62
2022/03/14 07:30:14;;;;;;;10.70;6.03;;;;;;;;;;4989627;28;20069;-62
2022/03/14 07:32:41;;;;;;;;;;;;;;;;;;4974067;28;20054;-61
2022/03/14 07:35:10;;;;;;;10.52;4.05;;;;;;;;;;4971730;28;19925;-58
2022/03/14 07:37:39;;;;;;;10.15;4.97;;;;;;;;;;4989790;28;20049;-58
2022/03/14 07:40:07;;;;;;;7.90;3.88;;;;;;;;;;4989508;28;20074;-59
2022/03/14 07:42:39;;;;;;;9.45;4.55;;;;;;;;;;4975198;28;20058;-56
2022/03/14 07:45:06;;;;;;;15.60;7.30;;;;;;;;;;4977123;28;20050;-57
2022/03/14 07:47:35;;;;;;;13.23;5.90;;;;;;;;;;4976620;28;20232;-59
2022/03/14 07:50:01;;;;;;;;;;;;;;;;;;4976675;28;20054;-61
2022/03/14 07:52:31;;;;;;;12.07;5.65;;;;;;;;;;4992368;28;20000;-61
2022/03/14 07:54:57;;;;;;;16.48;6.65;;;;;;;;;;4991090;28;20050;-60
2022/03/14 07:57:24;;;;;;;15.48;7.20;;;;;;;;;;4975741;28;20153;-59
2022/03/14 07:59:51;;;;;;;17.25;7.97;;;;;;;;;;4992432;28;20046;-61
2022/03/14 08:02:18;;;;;;;15.20;7.03;;;;;;;;;;4992274;28;20043;-59
2022/03/14 08:04:46;;;;;;;13.70;7.60;;;;;;;;;;4992185;28;20050;-54
2022/03/14 08:07:17;;;;;;;13.48;6.32;;;;;;;;;;4975361;28;20054;-56
2022/03/14 08:09:43;;;;;;;17.77;7.82;;;;;;;;;;4974716;28;20061;-56
2022/03/14 08:12:12;;;;;;;16.33;7.15;;;;;;;;;;4991292;28;20058;-58
2022/03/14 08:14:39;;;;;;;16.00;7.70;;;;;;;;;;4974494;28;20050;-54
2022/03/14 08:17:05;;;;;;;15.40;7.45;;;;;;;;;;4974879;28;20046;-58
2022/03/14 08:19:32;;;;;;;13.52;6.97;;;;;;;;;;4974785;28;20077;-57
2022/03/14 08:22:02;;;;;;;19.05;7.45;;;;;;;;;;4973080;28;20046;-57
2022/03/14 08:24:28;;;;;;;16.92;6.55;;;;;;;;;;4991628;28;20057;-52
2022/03/14 08:26:55;;;;;;;10.43;5.80;;;;;;;;;;4974250;28;20051;-57
2022/03/14 08:29:22;;;;;;;14.20;7.15;;;;;;;;;;4990329;28;20145;-53
2022/03/14 08:31:49;;;;;;;14.30;5.82;;;;;;;;;;4990083;28;20089;-56
2022/03/14 08:34:16;;;;;;;13.55;6.47;;;;;;;;;;4989545;28;20057;-56
2022/03/14 08:36:42;;;;;;;11.48;5.90;;;;;;;;;;4989837;28;20042;-53
2022/03/14 08:39:11;;;;;;;12.93;6.65;;;;;;;;;;4973056;28;20057;-58
2022/03/14 08:41:38;;;;;;;16.92;8.95;;;;;;;;;;4973317;28;21655;-56
2022/03/14 08:44:05;;;;;;;16.35;8.15;;;;;;;;;;4989593;28;20058;-53
2022/03/14 08:46:31;;;;;;;19.80;7.38;;;;;;;;;;4973848;28;20069;-56
2022/03/14 08:48:58;;;;;;;14.20;6.75;;;;;;;;;;4973949;28;20062;-62
2022/03/14 08:51:25;;;;;;;20.75;8.23;;;;;;;;;;4974417;28;20054;-58
2022/03/14 08:53:54;;;;;;;17.92;9.27;;;;;;;;;;4973621;28;20061;-57
2022/03/14 08:56:22;;;;;;;18.95;7.95;;;;;;;;;;4989736;28;20051;-60
2022/03/14 08:58:51;;;;;;;13.77;6.68;;;;;;;;;;4974894;28;20064;-62
2022/03/14 09:01:17;;;;;;;;;;;;;;;;;;5001418;23;20054;-60
2022/03/14 09:03:48;;;;;;;20.58;8.40;;;;;;;;;;5065660;28;19924;-57
2022/03/14 09:06:15;;;;;;;17.27;7.77;;;;;;;;;;5041830;28;20088;-55
2022/03/14 09:08:42;;;;;;;18.17;6.68;;;;;;;;;;5050683;28;20302;-57
2022/03/14 09:11:08;;;;;;;15.35;7.45;;;;;;;;;;5043406;28;20110;-58
2022/03/14 09:13:38;;;;;;;25.85;9.82;;;;;;;;;;5051628;28;20098;-56
2022/03/14 09:16:08;;;;;;;17.63;7.93;;;;;;;;;;5045170;28;20143;-57
2022/03/14 09:18:35;;;;;;;16.83;7.88;;;;;;;;;;5040947;28;20052;-59
2022/03/14 09:21:03;;;;;;;19.20;9.55;;;;;;;;;;5045769;28;20048;-58
2022/03/14 09:23:30;;;;;;;19.02;10.02;;;;;;;;;;5041964;28;20083;-53
2022/03/14 09:25:57;;;;;;;16.40;7.03;;;;;;;;;;5047154;28;20045;-54
2022/03/14 09:28:25;;;;;;;22.33;9.65;;;;;;;;;;5054566;28;20353;-53
2022/03/14 09:30:53;;;;;;;21.58;8.20;;;;;;;;;;5042271;28;20052;-60
2022/03/14 09:33:21;;;;;;;20.38;8.55;;;;;;;;;;5052600;28;20063;-56
2022/03/14 09:35:48;;;;;;;16.00;8.37;;;;;;;;;;5042475;28;20056;-56
2022/03/14 09:38:16;;;;;;;20.58;9.63;;;;;;;;;;5044311;28;20303;-56
2022/03/14 09:40:45;;;;;;;25.05;9.80;;;;;;;;;;5050756;28;20045;-55
2022/03/14 09:43:13;;;;;;;16.95;8.77;;;;;;;;;;5044612;28;20060;-56
2022/03/14 09:45:40;;;;;;;21.63;9.50;;;;;;;;;;5051001;28;20135;-58
2022/03/14 09:48:11;;;;;;;22.92;9.80;;;;;;;;;;5030097;28;20056;-57
2022/03/14 09:50:39;;;;;;;15.02;7.90;;;;;;;;;;5030517;28;20053;-57
2022/03/14 09:53:07;;;;;;;16.58;8.90;;;;;;;;;;5025309;28;20128;-54
2022/03/14 09:55:43;;;;;;;22.30;10.45;;;;;;;;;;5030219;28;20095;-56
2022/03/14 09:58:10;;;;;;;17.00;7.85;;;;;;;;;;5043775;28;20060;-57
2022/03/14 10:00:38;;;;;;;20.88;7.93;;;;;;;;;;5050414;28;20133;-53
2022/03/14 10:03:05;;;;;;;15.30;7.30;;;;;;;;;;5044186;28;20088;-58
2022/03/14 10:05:34;;;;;;;15.63;7.63;;;;;;;;;;5050064;28;20059;-56
2022/03/14 10:08:00;;;;;;;;;;;;;;;;;;5051265;28;20066;-58
2022/03/14 10:10:27;;;;;;;17.17;7.68;;;;;;;;;;5070244;28;19927;-53
2022/03/14 10:12:55;;;;;;;16.20;7.22;;;;;;;;;;5056197;28;20048;-54
2022/03/14 10:15:22;;;;;;;20.13;7.05;;;;;;;;;;5049906;28;20052;-58
2022/03/14 10:17:51;;;;;;;15.27;7.30;;;;;;;;;;5046447;28;20071;-57
2022/03/14 10:20:18;;;;;;;14.98;7.03;;;;;;;;;;5050303;28;20094;-55
2022/03/14 10:22:47;;;;;;;15.90;7.35;;;;;;;;;;5043618;28;20060;-54
2022/03/14 10:25:13;;;;;;;;;;;;;;;;;;5048346;28;20048;-56
2022/03/14 10:27:40;;;;;;;14.05;6.70;;;;;;;;;;5050958;28;19924;-58
2022/03/14 10:30:21;;;;;;;16.25;7.43;;;;;;;;;;5026799;28;20144;-58
2022/03/14 10:32:48;;;;;;;15.63;7.38;;;;;;;;;;5029640;28;20052;-58
2022/03/14 10:35:19;;;;;;;18.00;8.07;;;;;;;;;;5040819;28;20067;-57
2022/03/14 10:37:57;;;;;;;15.52;6.70;;;;;;;;;;5034684;23;20058;-57
2022/03/14 10:40:28;;;;;;;14.23;6.28;;;;;;;;;;5014501;28;20058;-62
2022/03/14 10:42:55;;;;;;;16.63;5.85;;;;;;;;;;5007059;28;20061;-57
2022/03/14 10:45:22;;;;;;;14.35;6.47;;;;;;;;;;4999086;28;20068;-56
2022/03/14 10:47:54;;;;;;;16.02;6.28;;;;;;;;;;5006040;28;20140;-61
2022/03/14 10:50:31;;;;;;;19.85;6.72;;;;;;;;;;5017833;28;20046;-58
2022/03/14 10:53:03;;;;;;;14.43;6.85;;;;;;;;;;5023177;28;20058;-59
2022/03/14 10:55:34;;;;;;;17.35;7.22;;;;;;;;;;5016342;28;20057;-55
2022/03/14 10:58:07;;;;;;;12.93;5.97;;;;;;;;;;5006188;28;20073;-59
2022/03/14 11:00:44;;;;;;;14.95;7.18;;;;;;;;;;5008543;28;20050;-62
2022/03/14 11:03:11;;;;;;;12.57;6.38;;;;;;;;;;5005902;28;20176;-59
2022/03/14 11:05:43;;;;;;;12.45;6.45;;;;;;;;;;5000892;28;20065;-59
2022/03/14 11:08:25;;;;;;;15.32;6.60;;;;;;;;;;5005814;28;20058;-58
2022/03/14 11:10:53;;;;;;;18.55;7.32;;;;;;;;;;5016331;28;20092;-61
2022/03/14 11:13:19;;;;;;;19.15;6.90;;;;;;;;;;5007146;28;20042;-57
2022/03/14 11:15:46;;;;;;;15.75;6.40;;;;;;;;;;5001511;28;20073;-59
2022/03/14 11:18:13;;;;;;;14.95;5.97;;;;;;;;;;5026670;28;20056;-58
2022/03/14 11:20:40;;;;;;;18.17;6.57;;;;;;;;;;5011180;28;20093;-59
2022/03/14 11:23:07;;;;;;;11.68;5.88;;;;;;;;;;5026838;28;20089;-55
2022/03/14 11:25:34;;;;;;;10.80;5.47;;;;;;;;;;5003329;28;20056;-56
2022/03/14 11:28:02;;;;;;;13.27;5.65;;;;;;;;;;5027179;28;20080;-55
2022/03/14 11:30:30;;;;;;;15.15;5.40;;;;;;;;;;5019515;28;20046;-58
2022/03/14 11:32:57;;;;;;;15.73;5.97;;;;;;;;;;5028291;28;20046;-57
2022/03/14 11:35:24;;;;;;;13.10;5.80;;;;;;;;;;5026851;28;20131;-51
2022/03/14 11:37:51;;;;;;;11.75;5.15;;;;;;;;;;5003884;28;20050;-58
2022/03/14 11:40:18;;;;;;;9.55;4.72;;;;;;;;;;5026212;28;20049;-58
2022/03/14 11:42:45;;;;;;;14.88;5.53;;;;;;;;;;5019719;28;20139;-57
2022/03/14 11:45:13;;;;;;;12.50;5.03;;;;;;;;;;5026330;28;20049;-56
2022/03/14 11:47:41;;;;;;;12.40;4.22;;;;;;;;;;5003508;28;20052;-55
2022/03/14 11:50:09;;;;;;;11.63;4.35;;;;;;;;;;5010178;28;20058;-55
2022/03/14 11:52:39;;;;;;;10.98;4.40;;;;;;;;;;5004534;28;20113;-59
2022/03/14 11:55:16;;;;;;;14.30;4.40;;;;;;;;;;5009819;28;20148;-59
2022/03/14 11:57:43;;;;;;;10.63;4.28;;;;;;;;;;5004324;28;20100;-61
2022/03/14 12:00:32;;;;;;;13.68;4.25;;;;;;;;;;5010461;28;20142;-59
2022/03/14 12:03:01;;;;;;;10.25;4.15;;;;;;;;;;5005328;28;20045;-59
2022/03/14 12:05:42;;;;;;;11.40;4.15;;;;;;;;;;5028885;28;20058;-58
2022/03/14 12:08:29;;;;;;;9.40;3.92;;;;;;;;;;5008922;28;20123;-58
2022/03/14 12:10:56;;;;;;;8.63;3.78;;;;;;;;;;5013107;28;20045;-58
2022/03/14 12:13:38;;;;;;;11.88;4.35;;;;;;;;;;5004106;28;20066;-62
2022/03/14 12:16:04;;;;;;;9.65;3.63;;;;;;;;;;5008722;28;20144;-61
2022/03/14 12:18:39;;;;;;;15.90;4.45;;;;;;;;;;5003973;28;20042;-61
2022/03/14 12:21:25;;;;;;;10.38;4.40;;;;;;;;;;5009325;28;20050;-62
2022/03/14 12:23:53;;;;;;;10.73;3.70;;;;;;;;;;4998025;28;20112;-60
2022/03/14 12:26:26;;;;;;;11.73;4.45;;;;;;;;;;4988769;28;20088;-60
2022/03/14 12:28:53;;;;;;;13.23;3.80;;;;;;;;;;5014250;28;20070;-61
2022/03/14 12:31:20;;;;;;;15.98;4.57;;;;;;;;;;5019513;28;20061;-61
2022/03/14 12:33:48;;;;;;;11.82;3.60;;;;;;;;;;5015935;28;20061;-61
2022/03/14 12:36:34;;;;;;;8.88;3.42;;;;;;;;;;5009506;28;20057;-59
2022/03/14 12:39:21;;;;;;;9.57;3.33;;;;;;;;;;5015534;28;20053;-59
2022/03/14 12:41:48;;;;;;;15.02;4.03;;;;;;;;;;5011800;28;20054;-62
2022/03/14 12:44:16;;;;;;;10.18;3.50;;;;;;;;;;5003422;28;20058;-59
2022/03/14 12:46:43;;;;;;;10.00;3.50;;;;;;;;;;5008884;28;20064;-61
2022/03/14 12:49:11;;;;;;;12.13;3.78;;;;;;;;;;5003647;28;20064;-58
2022/03/14 12:51:39;;;;;;;10.77;3.92;;;;;;;;;;5009170;28;20139;-60
2022/03/14 12:54:06;;;;;;;13.57;4.10;;;;;;;;;;5003863;28;20053;-61
2022/03/14 12:56:37;;;;;;;10.43;4.45;;;;;;;;;;5008652;28;20176;-58
2022/03/14 12:59:07;;;;;;;10.70;4.50;;;;;;;;;;5001850;28;20140;-58
2022/03/14 13:01:36;;;;;;;10.30;3.90;;;;;;;;;;5008642;28;20077;-57
2022/03/14 13:04:05;;;;;;;10.63;4.15;;;;;;;;;;4998378;28;20046;-61
2022/03/14 13:06:38;;;;;;;10.02;3.28;;;;;;;;;;5018850;28;20096;-59
2022/03/14 13:09:05;;;;;;;9.55;3.65;;;;;;;;;;5025480;28;20152;-59
2022/03/14 13:11:32;;;;;;;12.38;3.50;;;;;;;;;;5003205;28;20056;-57
2022/03/14 13:14:01;;;;;;;11.38;3.72;;;;;;;;;;5008868;28;20061;-55
2022/03/14 13:16:29;;;;;;;10.77;3.53;;;;;;;;;;5003056;28;20053;-56
2022/03/14 13:18:56;;;;;;;14.85;4.15;;;;;;;;;;5008436;28;20117;-57
2022/03/14 13:21:25;;;;;;;6.68;3.00;;;;;;;;;;5002966;28;20054;-60
2022/03/14 13:23:54;;;;;;;13.75;3.40;;;;;;;;;;5024490;28;20070;-56
2022/03/14 13:26:21;;;;;;;12.70;3.33;;;;;;;;;;5019057;28;20071;-56
2022/03/14 13:28:48;;;;;;;11.07;3.58;;;;;;;;;;5024982;28;20122;-59
2022/03/14 13:31:15;;;;;;;8.77;3.28;;;;;;;;;;5002610;28;20065;-58
2022/03/14 13:33:42;;;;;;;11.55;3.65;;;;;;;;;;5008388;28;20053;-58
2022/03/14 13:36:10;;;;;;;10.60;3.03;;;;;;;;;;5000840;28;20165;-57
2022/03/14 13:38:38;;;;;;;11.65;3.22;;;;;;;;;;5008562;28;20081;-60
2022/03/14 13:41:09;;;;;;;12.18;3.40;;;;;;;;;;5016591;28;20049;-56
2022/03/14 13:43:36;;;;;;;10.68;3.42;;;;;;;;;;5024299;28;20064;-60
2022/03/14 13:46:21;;;;;;;9.13;3.03;;;;;;;;;;5001197;28;20041;-59
2022/03/14 13:48:51;;;;;;;12.23;3.10;;;;;;;;;;5009078;28;20076;-63
2022/03/14 13:51:20;;;;;;;15.20;3.65;;;;;;;;;;5001717;28;20137;-62
2022/03/14 13:53:47;;;;;;;9.77;3.15;;;;;;;;;;5007694;28;20072;-62
2022/03/14 13:56:15;;;;;;;13.05;3.53;;;;;;;;;;5001449;28;20139;-62
2022/03/14 13:58:51;;;;;;;13.13;3.90;;;;;;;;;;5008202;28;20084;-62
2022/03/14 14:01:17;;;;;;;8.70;3.35;;;;;;;;;;5020101;28;20054;-60
2022/03/14 14:03:45;;;;;;;12.38;3.92;;;;;;;;;;4987813;28;20057;-59
2022/03/14 14:06:15;;;;;;;11.75;3.60;;;;;;;;;;5009554;28;20121;-61
2022/03/14 14:08:42;;;;;;;7.75;2.90;;;;;;;;;;5017766;28;20064;-58
2022/03/14 14:11:09;;;;;;;11.45;2.83;;;;;;;;;;5007300;28;20049;-60
2022/03/14 14:13:49;;;;;;;6.10;2.70;;;;;;;;;;5017760;28;20092;-58
2022/03/14 14:16:16;;;;;;;11.55;2.88;;;;;;;;;;5007328;28;20050;-59
2022/03/14 14:18:45;;;;;;;13.93;3.03;;;;;;;;;;5006805;28;20077;-60
2022/03/14 14:21:22;;;;;;;9.85;3.28;;;;;;;;;;5007640;28;20050;-61
2022/03/14 14:23:52;;;;;;;13.52;3.55;;;;;;;;;;5001678;28;20148;-60
2022/03/14 14:26:29;;;;;;;13.25;3.28;;;;;;;;;;5007197;28;20054;-57
2022/03/14 14:28:57;;;;;;;11.60;3.65;;;;;;;;;;5001680;28;20185;-58
2022/03/14 14:31:24;;;;;;;14.38;3.88;;;;;;;;;;5007366;28;20064;-59
2022/03/14 14:33:51;;;;;;;10.10;3.35;;;;;;;;;;5001969;28;20092;-62
2022/03/14 14:36:18;;;;;;;16.75;4.70;;;;;;;;;;5007044;28;20046;-58
2022/03/14 14:38:45;;;;;;;8.57;3.45;;;;;;;;;;5001254;28;20053;-61
2022/03/14 14:41:13;;;;;;;9.27;3.58;;;;;;;;;;5022710;28;20038;-62
2022/03/14 14:43:43;;;;;;;7.80;3.63;;;;;;;;;;5018959;28;20069;-62
2022/03/14 14:46:11;;;;;;;17.27;4.32;;;;;;;;;;5007046;28;20104;-59